Time;durP1;ratioP1;P1;durP2;ratioP2;P2;SDS_P1;SDS_P2;PMS_P1;PMS_P2;Temp;Humidity;BMP_temperature;BMP_pressure;BME280_temperature;BME280_humidity;BME280_pressure;Samples;Min_cycle;Max_cycle;Signal;HPM_P1;HPM_P2
2022/07/10 00:01:44;;;;;;;6.43;4.40;;;23.10;58.10;;;;;;6102660;28;80679;-64
2022/07/10 00:04:45;;;;;;;8.75;4.18;;;22.90;58.20;;;;;;6117633;28;80404;-64
2022/07/10 00:07:45;;;;;;;7.38;3.92;;;22.90;58.40;;;;;;6114077;28;80323;-64
2022/07/10 00:10:46;;;;;;;7.22;4.00;;;22.80;58.60;;;;;;6115508;28;80382;-64
2022/07/10 00:13:46;;;;;;;6.60;3.95;;;22.80;58.50;;;;;;6114074;28;80513;-64
2022/07/10 00:16:47;;;;;;;7.18;4.22;;;22.90;58.30;;;;;;6113924;28;80627;-64
2022/07/10 00:19:47;;;;;;;11.25;4.47;;;22.90;58.20;;;;;;6114874;28;80480;-64
2022/07/10 00:22:48;;;;;;;10.73;5.13;;;22.90;58.10;;;;;;6114332;28;80658;-65
2022/07/10 00:25:48;;;;;;;6.47;4.35;;;23.00;58.00;;;;;;6116782;28;80439;-65
2022/07/10 00:28:49;;;;;;;8.10;4.35;;;23.00;57.90;;;;;;6113931;28;80206;-66
2022/07/10 00:31:49;;;;;;;6.10;3.50;;;23.10;57.80;;;;;;6113765;28;80677;-65
2022/07/10 00:34:50;;;;;;;6.78;4.63;;;23.10;57.80;;;;;;6117345;28;80134;-64
2022/07/10 00:37:50;;;;;;;7.40;4.30;;;23.00;57.80;;;;;;6113878;28;80405;-65
2022/07/10 00:40:51;;;;;;;10.50;4.55;;;23.00;57.80;;;;;;6113492;28;80432;-64
2022/07/10 00:43:51;;;;;;;7.20;3.80;;;22.90;57.90;;;;;;6112767;28;81319;-65
2022/07/10 00:46:51;;;;;;;8.40;4.03;;;22.90;58.00;;;;;;6113803;28;80210;-63
2022/07/10 00:49:52;;;;;;;7.82;4.38;;;22.90;58.00;;;;;;6113227;28;81544;-64
2022/07/10 00:52:52;;;;;;;8.52;3.70;;;23.00;58.00;;;;;;6099402;28;80843;-65
2022/07/10 00:55:53;;;;;;;8.50;3.85;;;22.90;57.90;;;;;;6114003;28;80365;-64
2022/07/10 00:58:53;;;;;;;5.60;4.03;;;22.90;58.00;;;;;;6117591;28;80253;-63
2022/07/10 01:01:54;;;;;;;8.20;4.30;;;22.90;58.20;;;;;;6114447;28;81720;-65
2022/07/10 01:04:54;;;;;;;6.82;3.80;;;22.80;58.30;;;;;;6101946;28;81621;-66
2022/07/10 01:07:55;;;;;;;13.13;4.35;;;22.70;58.40;;;;;;6112876;28;80366;-66
2022/07/10 01:10:55;;;;;;;8.65;4.22;;;22.70;58.90;;;;;;6106781;28;80997;-65
2022/07/10 01:13:56;;;;;;;6.55;3.67;;;22.60;59.00;;;;;;6112978;28;80897;-66
2022/07/10 01:16:56;;;;;;;7.30;4.50;;;22.70;58.80;;;;;;6113172;28;80527;-66
2022/07/10 01:19:57;;;;;;;6.68;4.32;;;22.70;58.80;;;;;;6112783;28;81064;-66
2022/07/10 01:22:57;;;;;;;7.88;4.55;;;22.80;58.60;;;;;;6112645;28;80483;-65
2022/07/10 01:25:58;;;;;;;12.23;4.35;;;22.80;58.60;;;;;;6114232;28;80312;-64
2022/07/10 01:28:58;;;;;;;8.93;4.10;;;22.90;58.30;;;;;;6120535;28;80452;-65
2022/07/10 01:32:00;;;;;;;9.15;4.68;;;23.00;58.20;;;;;;6114434;28;80201;-65
2022/07/10 01:35:01;;;;;;;6.35;3.50;;;23.00;58.20;;;;;;6112453;28;80356;-65
2022/07/10 01:38:01;;;;;;;12.48;4.50;;;23.00;58.10;;;;;;6112298;28;80530;-65
2022/07/10 01:41:02;;;;;;;4.93;3.97;;;23.10;58.00;;;;;;6121238;28;83564;-65
2022/07/10 01:44:02;;;;;;;6.85;4.20;;;23.10;57.90;;;;;;6113314;28;80521;-64
2022/07/10 01:47:03;;;;;;;8.00;4.07;;;23.00;57.90;;;;;;6116668;28;80453;-66
2022/07/10 01:50:03;;;;;;;7.57;4.00;;;23.00;58.10;;;;;;6112670;28;80277;-65
2022/07/10 01:53:05;;;;;;;5.57;3.67;;;22.90;58.30;;;;;;6099520;28;80213;-65
2022/07/10 01:56:06;;;;;;;7.05;3.95;;;22.90;58.50;;;;;;6102026;28;81568;-66
2022/07/10 01:59:06;;;;;;;6.15;3.63;;;22.80;58.70;;;;;;6101508;28;80621;-66
2022/07/10 02:02:07;;;;;;;6.68;4.00;;;22.80;58.80;;;;;;6098856;28;80878;-65
2022/07/10 02:05:07;;;;;;;5.78;3.97;;;22.70;58.70;;;;;;6112040;28;80487;-65
2022/07/10 02:08:08;;;;;;;8.63;4.15;;;22.60;59.20;;;;;;6110609;28;80584;-65
2022/07/10 02:11:08;;;;;;;6.85;4.82;;;22.50;59.40;;;;;;6108584;28;80473;-65
2022/07/10 02:14:09;;;;;;;7.70;3.95;;;22.50;59.60;;;;;;6115868;28;80410;-65
2022/07/10 02:17:09;;;;;;;9.82;4.25;;;22.50;59.60;;;;;;6121319;28;80331;-65
2022/07/10 02:20:10;;;;;;;9.57;4.60;;;22.50;59.50;;;;;;6133995;28;80403;-65
2022/07/10 02:23:11;;;;;;;9.57;4.50;;;22.50;59.50;;;;;;6114756;28;80323;-65
2022/07/10 02:26:11;;;;;;;11.15;5.55;;;22.40;59.50;;;;;;6111620;28;80733;-66
2022/07/10 02:29:12;;;;;;;7.43;5.30;;;22.30;59.60;;;;;;6111537;28;81186;-66
2022/07/10 02:32:12;;;;;;;9.75;5.15;;;22.40;59.50;;;;;;6111786;28;80508;-66
2022/07/10 02:35:13;;;;;;;8.45;4.57;;;22.50;59.30;;;;;;6111705;28;80479;-64
2022/07/10 02:38:13;;;;;;;9.38;4.60;;;22.60;59.00;;;;;;6111390;28;80346;-63
2022/07/10 02:41:15;;;;;;;8.43;4.63;;;22.60;59.00;;;;;;6111175;28;80503;-64
2022/07/10 02:44:16;;;;;;;8.05;5.13;;;22.70;58.70;;;;;;6110789;28;80711;-63
2022/07/10 02:47:16;;;;;;;7.22;4.40;;;22.70;58.90;;;;;;6103563;28;81395;-62
2022/07/10 02:50:16;;;;;;;7.25;4.78;;;22.70;58.70;;;;;;6110407;28;80641;-62
2022/07/10 02:53:17;;;;;;;8.45;4.53;;;22.80;58.50;;;;;;6099751;28;80982;-62
2022/07/10 02:56:17;;;;;;;12.60;5.15;;;22.80;58.40;;;;;;6105129;28;80559;-63
2022/07/10 02:59:18;;;;;;;8.32;5.20;;;22.80;58.50;;;;;;6108118;28;80803;-63
2022/07/10 03:02:18;;;;;;;6.43;4.72;;;22.70;58.40;;;;;;6112614;28;80865;-64
2022/07/10 03:05:19;;;;;;;9.27;5.00;;;22.80;58.50;;;;;;6112047;28;80008;-63
2022/07/10 03:08:19;;;;;;;24.92;5.22;;;22.70;58.60;;;;;;6104848;28;80594;-63
2022/07/10 03:11:20;;;;;;;11.82;4.70;;;22.70;58.70;;;;;;6118353;28;81425;-63
2022/07/10 03:14:20;;;;;;;8.70;4.60;;;22.60;58.90;;;;;;6118751;28;83268;-63
2022/07/10 03:17:21;;;;;;;9.68;4.38;;;22.60;59.00;;;;;;6110718;28;80435;-63
2022/07/10 03:20:21;;;;;;;7.78;4.70;;;22.60;59.00;;;;;;6110988;28;80537;-63
2022/07/10 03:23:22;;;;;;;7.75;4.28;;;22.70;58.80;;;;;;6110754;28;80474;-65
2022/07/10 03:26:22;;;;;;;6.18;4.20;;;22.70;58.70;;;;;;6117711;28;80613;-63
2022/07/10 03:29:23;;;;;;;9.60;4.93;;;22.70;58.80;;;;;;6113088;28;81570;-63
2022/07/10 03:32:23;;;;;;;6.00;4.15;;;22.60;59.10;;;;;;6115420;28;80397;-62
2022/07/10 03:35:25;;;;;;;8.95;3.92;;;22.60;59.10;;;;;;6123720;28;81763;-62
2022/07/10 03:38:26;;;;;;;6.80;4.18;;;22.60;59.10;;;;;;6122759;28;81338;-62
2022/07/10 03:41:26;;;;;;;6.32;3.75;;;22.60;58.90;;;;;;6114965;28;80340;-62
2022/07/10 03:44:26;;;;;;;5.38;3.75;;;22.70;59.00;;;;;;6109696;28;82975;-62
2022/07/10 03:47:27;;;;;;;13.02;3.88;;;22.70;58.90;;;;;;6113649;28;80543;-62
2022/07/10 03:50:27;;;;;;;6.03;3.90;;;22.70;59.10;;;;;;6114754;28;80998;-62
2022/07/10 03:53:28;;;;;;;6.35;4.00;;;22.70;59.10;;;;;;6123594;28;80126;-61
2022/07/10 03:59:48;;;;;;;9.00;4.47;;;22.50;59.60;;;;;;6102084;28;80495;-63
2022/07/10 04:02:49;;;;;;;5.90;3.70;;;22.60;59.60;;;;;;6118150;28;81591;-63
2022/07/10 04:05:49;;;;;;;5.85;3.55;;;22.60;59.50;;;;;;6113878;28;81488;-63
2022/07/10 04:08:50;;;;;;;6.70;4.20;;;22.60;59.40;;;;;;6114054;28;80427;-62
2022/07/10 04:11:50;;;;;;;6.28;4.15;;;22.70;59.40;;;;;;6116502;28;81826;-63
2022/07/10 04:14:51;;;;;;;6.28;3.85;;;22.60;59.50;;;;;;6114455;28;81374;-63
2022/07/10 04:17:51;;;;;;;8.27;3.95;;;22.60;59.70;;;;;;6109774;28;80499;-63
2022/07/10 04:20:52;;;;;;;5.82;3.80;;;22.60;59.80;;;;;;6112055;28;80945;-63
2022/07/10 04:23:52;;;;;;;10.10;5.32;;;22.50;60.10;;;;;;6111111;28;82013;-63
2022/07/10 04:26:53;;;;;;;8.57;4.50;;;22.40;60.50;;;;;;6110195;28;80382;-62
2022/07/10 04:29:53;;;;;;;7.78;4.93;;;22.50;60.40;;;;;;6102930;28;80500;-63
2022/07/10 04:32:54;;;;;;;5.68;4.25;;;22.80;60.00;;;;;;6108222;28;80731;-62
2022/07/10 04:35:54;;;;;;;6.75;4.90;;;22.90;59.40;;;;;;6115366;28;80278;-65
2022/07/10 04:38:55;;;;;;;9.20;4.30;;;23.10;59.10;;;;;;6113543;28;80702;-66
2022/07/10 04:41:55;;;;;;;5.57;4.13;;;23.20;59.30;;;;;;6103594;28;80499;-66
2022/07/10 04:44:56;;;;;;;5.82;3.58;;;23.30;59.10;;;;;;6111425;28;80546;-65
2022/07/10 04:47:56;;;;;;;7.50;3.42;;;23.40;58.70;;;;;;6106337;28;80537;-67
2022/07/10 04:50:57;;;;;;;5.18;3.47;;;23.50;59.30;;;;;;6111783;28;82982;-66
2022/07/10 04:53:58;;;;;;;7.05;3.22;;;23.50;58.70;;;;;;6106528;28;80684;-64
2022/07/10 04:57:00;;;;;;;3.90;2.97;;;23.60;58.80;;;;;;6106663;28;80610;-64
2022/07/10 05:00:00;;;;;;;16.45;4.15;;;23.70;59.00;;;;;;6110550;28;80787;-63
2022/07/10 05:03:00;;;;;;;12.35;3.85;;;23.70;58.90;;;;;;6109298;28;80290;-70
2022/07/10 05:06:01;;;;;;;15.07;3.15;;;23.70;58.90;;;;;;6099890;28;87235;-70
2022/07/10 05:09:01;;;;;;;5.05;2.80;;;23.80;59.20;;;;;;6102692;28;80653;-62
2022/07/10 05:12:02;;;;;;;6.80;3.20;;;23.90;59.20;;;;;;6109552;28;82008;-62
2022/07/10 05:15:02;;;;;;;6.60;3.38;;;23.90;59.20;;;;;;6099000;28;80662;-63
2022/07/10 05:18:03;;;;;;;6.25;3.28;;;23.90;58.80;;;;;;6098804;28;80540;-63
2022/07/10 05:21:03;;;;;;;8.23;3.40;;;23.90;59.00;;;;;;6096631;28;81226;-64
2022/07/10 05:24:04;;;;;;;8.63;3.38;;;23.90;59.00;;;;;;6101802;28;80909;-71
2022/07/10 05:27:04;;;;;;;13.05;3.95;;;23.90;58.90;;;;;;6108256;28;80422;-63
2022/07/10 05:30:05;;;;;;;10.73;3.70;;;23.90;58.60;;;;;;6112449;28;80474;-63
2022/07/10 05:33:05;;;;;;;10.75;4.05;;;23.90;58.60;;;;;;6110526;28;81003;-63
2022/07/10 05:36:06;;;;;;;15.13;4.93;;;24.00;58.70;;;;;;6108666;28;80164;-63
2022/07/10 05:39:06;;;;;;;13.95;3.88;;;23.90;59.10;;;;;;6094714;28;80418;-62
2022/07/10 05:42:07;;;;;;;14.70;3.55;;;24.00;59.30;;;;;;6103062;28;80833;-63
2022/07/10 05:45:07;;;;;;;8.52;3.80;;;24.10;59.50;;;;;;6110585;28;80499;-63
2022/07/10 05:48:08;;;;;;;8.07;3.15;;;24.10;59.30;;;;;;6109616;28;81218;-64
2022/07/10 05:51:08;;;;;;;7.30;3.35;;;24.10;59.40;;;;;;6109950;28;80545;-63
2022/07/10 05:54:09;;;;;;;9.55;3.92;;;24.10;59.60;;;;;;6107041;28;81518;-62
2022/07/10 05:57:11;;;;;;;12.27;3.78;;;24.20;60.10;;;;;;6111392;28;80536;-63
2022/07/10 06:00:11;;;;;;;6.45;3.20;;;24.20;59.90;;;;;;6100911;28;80623;-62
2022/07/10 06:03:14;;;;;;;4.50;3.45;;;24.20;60.20;;;;;;6109204;28;80132;-62
2022/07/10 06:06:15;;;;;;;10.63;3.50;;;24.20;60.70;;;;;;6112299;28;80489;-62
2022/07/10 06:09:15;;;;;;;12.27;4.57;;;24.20;60.90;;;;;;6118127;28;81515;-62
2022/07/10 06:12:16;;;;;;;15.23;4.55;;;24.30;61.30;;;;;;6132937;28;80630;-61
2022/07/10 06:15:16;;;;;;;7.63;4.30;;;24.20;60.60;;;;;;6114428;28;80709;-61
2022/07/10 06:18:17;;;;;;;19.98;3.95;;;24.20;60.90;;;;;;6111881;28;80658;-61
2022/07/10 06:21:21;;;;;;;6.57;3.63;;;24.20;60.70;;;;;;6092536;28;82236;-62
2022/07/10 06:24:22;;;;;;;8.90;4.57;;;24.30;60.20;;;;;;6102937;28;83632;-62
2022/07/10 06:27:22;;;;;;;14.88;4.05;;;24.30;60.20;;;;;;6109762;28;80572;-64
2022/07/10 06:30:23;;;;;;;6.63;3.65;;;24.30;60.00;;;;;;6101004;28;80477;-64
2022/07/10 06:33:23;;;;;;;8.02;3.97;;;24.30;59.80;;;;;;6112211;28;80873;-64
2022/07/10 06:36:24;;;;;;;5.93;3.90;;;24.40;59.60;;;;;;6112097;28;80349;-63
2022/07/10 06:39:24;;;;;;;6.00;3.60;;;24.40;59.50;;;;;;6101657;28;80844;-64
2022/07/10 06:42:25;;;;;;;8.77;3.97;;;24.40;59.20;;;;;;6107495;28;80455;-65
2022/07/10 06:45:25;;;;;;;5.32;3.85;;;24.40;59.10;;;;;;6099495;28;82916;-64
2022/07/10 06:48:26;;;;;;;11.30;4.25;;;24.40;59.10;;;;;;6099444;28;81612;-63
2022/07/10 06:51:26;;;;;;;5.72;3.95;;;24.40;59.00;;;;;;6113613;28;80405;-63
2022/07/10 06:54:27;;;;;;;6.68;4.28;;;24.40;58.30;;;;;;6092833;28;80626;-64
2022/07/10 06:57:27;;;;;;;7.18;3.67;;;24.40;58.50;;;;;;6080587;28;80479;-64
2022/07/10 07:00:28;;;;;;;5.53;3.78;;;24.50;58.50;;;;;;6108301;28;81520;-65
2022/07/10 07:03:28;;;;;;;6.78;4.38;;;24.50;58.40;;;;;;6127984;28;81369;-65
2022/07/10 07:06:29;;;;;;;5.10;3.63;;;24.50;57.80;;;;;;6111392;28;80363;-64
2022/07/10 07:09:29;;;;;;;4.78;3.28;;;24.60;57.80;;;;;;6110163;28;79955;-64
2022/07/10 07:12:30;;;;;;;6.63;3.17;;;24.60;57.70;;;;;;6111457;28;80378;-64
2022/07/10 07:15:30;;;;;;;9.85;3.38;;;24.60;57.70;;;;;;6109815;28;81511;-64
2022/07/10 07:18:36;;;;;;;4.47;2.90;;;24.60;57.40;;;;;;6110963;28;80545;-63
2022/07/10 07:24:56;;;;;;;5.72;2.45;;;24.60;57.30;;;;;;6110901;28;80229;-68
2022/07/10 07:27:57;;;;;;;2.25;2.05;;;24.60;56.10;;;;;;6110892;28;81675;-67
2022/07/10 07:30:59;;;;;;;8.05;2.63;;;24.60;55.20;;;;;;6111520;28;80758;-67
2022/07/10 07:33:59;;;;;;;3.72;2.28;;;24.60;55.10;;;;;;6106601;28;80444;-64
2022/07/10 07:37:00;;;;;;;5.20;2.90;;;24.60;54.90;;;;;;6101042;28;80579;-64
2022/07/10 07:40:00;;;;;;;2.92;2.00;;;24.60;54.90;;;;;;6100910;28;81558;-63
2022/07/10 07:43:01;;;;;;;8.02;2.65;;;24.60;55.00;;;;;;6113726;28;81104;-63
2022/07/10 07:46:01;;;;;;;4.30;2.30;;;24.60;55.00;;;;;;6102007;28;80200;-62
2022/07/10 07:49:02;;;;;;;3.30;1.90;;;24.60;54.60;;;;;;6108547;28;80581;-63
2022/07/10 07:52:02;;;;;;;12.13;2.20;;;24.70;54.00;;;;;;6108726;28;80512;-63
2022/07/10 07:55:03;;;;;;;4.90;1.85;;;24.70;53.30;;;;;;6097037;28;80573;-62
2022/07/10 07:58:03;;;;;;;6.03;1.70;;;24.60;53.40;;;;;;6089653;28;80447;-73
2022/07/10 08:01:04;;;;;;;4.20;1.70;;;24.60;53.30;;;;;;6100812;28;80457;-75
2022/07/10 08:04:04;;;;;;;3.33;1.77;;;24.60;53.60;;;;;;6111180;28;80464;-63
2022/07/10 08:07:05;;;;;;;2.75;1.95;;;24.60;53.10;;;;;;6104146;28;80549;-66
2022/07/10 08:10:05;;;;;;;9.25;2.42;;;24.60;52.80;;;;;;6106636;28;81838;-64
2022/07/10 08:13:06;;;;;;;4.03;1.80;;;24.60;53.10;;;;;;6096921;28;81989;-62
2022/07/10 08:16:06;;;;;;;7.18;2.10;;;24.60;53.10;;;;;;6099862;28;81014;-62
2022/07/10 08:19:07;;;;;;;4.43;1.75;;;24.60;53.10;;;;;;6100164;28;80443;-63
2022/07/10 08:22:07;;;;;;;12.50;2.10;;;24.60;52.70;;;;;;6121444;28;81785;-65
2022/07/10 08:25:08;;;;;;;2.05;1.48;;;24.60;52.40;;;;;;6112070;28;80350;-61
2022/07/10 08:28:11;;;;;;;3.65;1.50;;;24.70;52.60;;;;;;6106395;28;81627;-61
2022/07/10 08:31:12;;;;;;;6.85;2.53;;;24.70;52.30;;;;;;6111681;28;80881;-63
2022/07/10 08:34:12;;;;;;;26.15;3.00;;;24.60;50.80;;;;;;6111256;28;80624;-60
2022/07/10 08:37:13;;;;;;;6.13;2.10;;;24.50;50.30;;;;;;6118730;28;80792;-63
2022/07/10 08:40:13;;;;;;;4.22;1.50;;;24.40;49.70;;;;;;6116242;28;81452;-60
2022/07/10 08:43:14;;;;;;;1.90;1.33;;;24.30;49.90;;;;;;6105024;28;80746;-61
2022/07/10 08:46:14;;;;;;;3.58;1.60;;;24.20;49.60;;;;;;6113105;28;80958;-62
2022/07/10 08:49:15;;;;;;;3.17;1.42;;;24.00;49.60;;;;;;6108572;28;82168;-62
2022/07/10 08:52:15;;;;;;;2.92;1.48;;;24.10;49.50;;;;;;6107491;28;80373;-61
2022/07/10 08:55:16;;;;;;;3.00;1.30;;;24.10;49.80;;;;;;6113994;28;80480;-62
2022/07/10 08:58:16;;;;;;;3.15;1.92;;;24.10;49.70;;;;;;6103228;28;80421;-62
2022/07/10 09:01:22;;;;;;;7.35;2.20;;;24.00;49.20;;;;;;6107335;28;80226;-81
2022/07/10 09:04:23;;;;;;;2.67;1.45;;;24.00;49.40;;;;;;6113269;28;85376;-62
2022/07/10 09:07:24;;;;;;;2.35;1.52;;;24.00;49.90;;;;;;6115900;28;82547;-72
2022/07/10 09:10:24;;;;;;;2.90;1.05;;;24.00;50.00;;;;;;6110343;28;81361;-63
2022/07/10 09:13:25;;;;;;;3.65;1.73;;;24.10;50.60;;;;;;6114884;28;80782;-68
2022/07/10 09:16:25;;;;;;;2.90;1.60;;;24.10;51.00;;;;;;6105204;28;80579;-64
2022/07/10 09:19:26;;;;;;;6.25;2.00;;;24.10;51.10;;;;;;6121312;28;80470;-65
2022/07/10 09:22:26;;;;;;;4.35;1.50;;;24.10;51.30;;;;;;6102337;28;81015;-62
2022/07/10 09:25:27;;;;;;;3.05;1.70;;;24.20;51.80;;;;;;6096165;28;80163;-62
2022/07/10 09:28:27;;;;;;;3.53;1.67;;;24.20;52.40;;;;;;6095511;28;80769;-63
2022/07/10 09:31:27;;;;;;;1.30;1.20;;;24.00;49.00;;;;;;6097516;28;80507;-64
2022/07/10 09:34:28;;;;;;;5.28;1.48;;;24.00;48.70;;;;;;6098561;28;81481;-62
2022/07/10 09:37:28;;;;;;;3.30;1.77;;;24.00;48.80;;;;;;6097960;28;80559;-64
2022/07/10 09:40:29;;;;;;;7.43;1.70;;;23.90;48.50;;;;;;6097932;28;81626;-64
2022/07/10 09:43:29;;;;;;;1.50;1.10;;;24.00;49.10;;;;;;6113451;28;81120;-64
2022/07/10 09:46:30;;;;;;;1.85;1.05;;;24.00;47.60;;;;;;6102778;28;80477;-65
2022/07/10 09:49:30;;;;;;;4.95;1.45;;;23.90;47.10;;;;;;6096957;28;80397;-63
2022/07/10 09:52:31;;;;;;;3.53;1.10;;;23.90;47.10;;;;;;6117169;28;80708;-61
2022/07/10 09:55:31;;;;;;;2.65;1.42;;;23.90;47.60;;;;;;6112861;28;80433;-62
2022/07/10 09:58:32;;;;;;;3.22;1.50;;;24.00;48.20;;;;;;6100568;28;80295;-62
2022/07/10 10:01:32;;;;;;;4.60;1.70;;;24.00;48.50;;;;;;6112649;28;80689;-62
2022/07/10 10:04:33;;;;;;;5.28;1.65;;;24.10;48.60;;;;;;6109960;28;82099;-60
2022/07/10 10:07:33;;;;;;;4.70;1.75;;;24.20;49.00;;;;;;6112745;28;81244;-61
2022/07/10 10:10:34;;;;;;;2.40;1.45;;;24.30;50.00;;;;;;6106478;28;80924;-60
2022/07/10 10:13:34;;;;;;;2.25;1.08;;;24.30;50.30;;;;;;6106832;28;80576;-63
2022/07/10 10:16:35;;;;;;;3.10;1.52;;;24.30;50.80;;;;;;6100300;28;80683;-63
2022/07/10 10:22:55;;;;;;;3.38;2.58;;;24.50;50.60;;;;;;6106859;28;80836;-66
2022/07/10 10:25:56;;;;;;;2.90;1.30;;;24.60;50.90;;;;;;6113913;28;80424;-64
2022/07/10 10:28:56;;;;;;;2.75;1.42;;;24.60;50.90;;;;;;6105444;28;82143;-63
2022/07/10 10:31:57;;;;;;;3.40;1.55;;;24.60;50.80;;;;;;6109528;28;80430;-63
2022/07/10 10:34:58;;;;;;;5.10;2.13;;;24.50;51.20;;;;;;6108384;28;82112;-63
2022/07/10 10:37:58;;;;;;;3.05;1.40;;;24.50;51.90;;;;;;6099913;28;80865;-63
2022/07/10 10:40:59;;;;;;;2.42;1.85;;;24.50;52.20;;;;;;6101079;28;80406;-64
2022/07/10 10:44:00;;;;;;;2.50;1.40;;;24.50;52.50;;;;;;6102406;28;80877;-63
2022/07/10 10:47:05;;;;;;;4.43;1.52;;;24.60;52.50;;;;;;6109733;28;80707;-63
2022/07/10 10:50:05;;;;;;;37.55;2.17;;;24.60;51.90;;;;;;6105923;28;80954;-63
2022/07/10 10:53:06;;;;;;;15.35;1.95;;;24.60;52.00;;;;;;6109316;28;80868;-63
2022/07/10 10:56:07;;;;;;;18.00;1.48;;;24.60;52.10;;;;;;6107133;28;80614;-62
2022/07/10 10:59:08;;;;;;;8.25;2.60;;;24.60;52.00;;;;;;6101952;28;80435;-63
2022/07/10 11:02:08;;;;;;;15.50;1.85;;;24.70;51.40;;;;;;6107853;28;80882;-63
2022/07/10 11:05:09;;;;;;;7.18;1.80;;;24.70;51.90;;;;;;6104234;28;81517;-63
2022/07/10 11:08:10;;;;;;;11.43;1.48;;;24.70;51.40;;;;;;6102545;28;80429;-63
2022/07/10 11:11:10;;;;;;;7.07;1.60;;;24.70;50.70;;;;;;6110005;28;81456;-64
2022/07/10 11:14:11;;;;;;;19.85;2.30;;;24.70;50.50;;;;;;6113254;28;80339;-64
2022/07/10 11:17:12;;;;;;;5.53;1.88;;;24.70;50.60;;;;;;6093829;28;81166;-64
2022/07/10 11:20:13;;;;;;;4.32;1.80;;;24.70;50.30;;;;;;6113395;28;82169;-63
2022/07/10 11:23:14;;;;;;;9.70;1.88;;;24.80;50.30;;;;;;6127218;28;80459;-63
2022/07/10 11:26:16;;;;;;;3.58;2.00;;;24.80;50.10;;;;;;6114664;28;80791;-63
2022/07/10 11:29:17;;;;;;;7.38;1.95;;;24.90;50.70;;;;;;6109759;28;81486;-63
2022/07/10 11:32:17;;;;;;;5.68;2.00;;;24.90;50.50;;;;;;6111269;28;80522;-63
2022/07/10 11:35:18;;;;;;;2.42;1.90;;;25.00;50.40;;;;;;6106452;28;81089;-63
2022/07/10 11:38:19;;;;;;;3.03;1.98;;;25.00;50.90;;;;;;6100451;28;80762;-65
2022/07/10 11:41:21;;;;;;;12.57;2.00;;;25.00;51.40;;;;;;6103062;28;81544;-63
2022/07/10 11:44:21;;;;;;;3.45;1.73;;;25.10;51.60;;;;;;6103426;28;80798;-64
2022/07/10 11:47:22;;;;;;;5.32;2.13;;;25.10;51.70;;;;;;6104989;28;80864;-65
2022/07/10 11:50:22;;;;;;;3.42;1.98;;;25.10;51.90;;;;;;6104454;28;80983;-70
2022/07/10 11:53:22;;;;;;;6.60;2.22;;;25.10;52.70;;;;;;6107865;28;81816;-63
2022/07/10 11:56:23;;;;;;;4.28;1.70;;;25.10;51.90;;;;;;6106796;28;81478;-63
2022/07/10 11:59:24;;;;;;;2.22;1.58;;;25.10;51.90;;;;;;6112810;28;81275;-63
2022/07/10 12:02:24;;;;;;;4.53;1.70;;;25.10;51.80;;;;;;6110508;28;80417;-64
2022/07/10 12:05:25;;;;;;;2.40;1.63;;;25.10;51.40;;;;;;6109920;28;80752;-66
2022/07/10 12:08:25;;;;;;;4.38;1.98;;;25.00;50.90;;;;;;6112064;28;80930;-63
2022/07/10 12:11:26;;;;;;;3.92;1.63;;;25.10;50.90;;;;;;6105194;28;80534;-62
2022/07/10 12:14:26;;;;;;;4.20;1.40;;;25.10;51.00;;;;;;6113223;28;82022;-62
2022/07/10 12:17:27;;;;;;;5.65;1.70;;;25.10;50.80;;;;;;6100335;28;81212;-63
2022/07/10 12:20:27;;;;;;;2.80;1.40;;;25.00;46.00;;;;;;6103641;28;81038;-63
2022/07/10 12:23:28;;;;;;;2.78;1.63;;;25.00;47.40;;;;;;6101420;28;81409;-64
2022/07/10 12:26:28;;;;;;;4.75;1.58;;;25.00;47.20;;;;;;6110085;28;80503;-64
2022/07/10 12:29:30;;;;;;;2.92;1.33;;;25.10;47.10;;;;;;6097643;28;80445;-64
2022/07/10 12:32:31;;;;;;;4.40;1.33;;;25.10;47.30;;;;;;6109161;28;81463;-64
2022/07/10 12:35:31;;;;;;;13.73;1.50;;;25.10;47.80;;;;;;6104194;28;81500;-64
2022/07/10 12:38:33;;;;;;;2.30;1.30;;;25.10;47.80;;;;;;6102055;28;80556;-64
2022/07/10 12:41:33;;;;;;;4.25;1.23;;;25.10;47.50;;;;;;6104370;28;80953;-64
2022/07/10 12:44:34;;;;;;;1.73;1.20;;;25.10;47.20;;;;;;6098374;28;80795;-64
2022/07/10 12:47:34;;;;;;;3.63;1.40;;;25.10;47.10;;;;;;6104253;28;82012;-64
2022/07/10 12:50:35;;;;;;;2.13;1.33;;;25.20;46.90;;;;;;6111182;28;80454;-64
2022/07/10 12:53:35;;;;;;;3.58;1.33;;;25.20;47.20;;;;;;6109011;28;80160;-63
2022/07/10 12:56:36;;;;;;;3.53;1.48;;;25.20;46.90;;;;;;6108179;28;82219;-64
2022/07/10 12:59:37;;;;;;;2.30;1.42;;;25.20;47.10;;;;;;6104127;28;83075;-71
2022/07/10 13:02:37;;;;;;;3.38;1.45;;;25.10;46.60;;;;;;6097374;28;80582;-64
2022/07/10 13:05:40;;;;;;;1.65;1.25;;;25.10;46.70;;;;;;6104776;28;80540;-65
2022/07/10 13:08:41;;;;;;;3.05;1.30;;;25.10;46.80;;;;;;6098572;28;81605;-65
2022/07/10 13:11:41;;;;;;;5.10;1.35;;;25.10;47.10;;;;;;6094064;28;80773;-65
2022/07/10 13:14:42;;;;;;;3.67;1.40;;;25.10;48.00;;;;;;6097429;28;80420;-65
2022/07/10 13:17:42;;;;;;;2.42;1.40;;;25.10;47.50;;;;;;6093396;28;80727;-64
2022/07/10 13:20:43;;;;;;;2.92;1.45;;;25.10;47.00;;;;;;6101640;28;81251;-64
2022/07/10 13:23:43;;;;;;;2.53;1.70;;;25.10;46.90;;;;;;6097384;28;81326;-64
2022/07/10 13:26:45;;;;;;;2.25;1.50;;;25.10;47.20;;;;;;6092279;28;80193;-64
2022/07/10 13:29:45;;;;;;;3.33;1.42;;;25.10;46.60;;;;;;6103680;28;81533;-65
2022/07/10 13:32:46;;;;;;;3.47;1.15;;;25.10;46.70;;;;;;6092433;28;80227;-64
2022/07/10 13:35:47;;;;;;;3.55;1.40;;;25.10;46.50;;;;;;6098891;28;80196;-65
2022/07/10 13:38:49;;;;;;;4.07;1.58;;;25.10;46.70;;;;;;6095231;28;80438;-64
2022/07/10 13:41:51;;;;;;;3.60;1.40;;;25.10;46.70;;;;;;6101245;28;81133;-65
2022/07/10 13:44:51;;;;;;;4.47;1.67;;;25.00;47.20;;;;;;6093610;28;80778;-64
2022/07/10 13:47:55;;;;;;;3.83;1.48;;;25.00;46.40;;;;;;6097253;28;80239;-65
2022/07/10 13:50:55;;;;;;;6.57;1.90;;;25.00;46.70;;;;;;6093077;28;80357;-63
2022/07/10 13:53:56;;;;;;;1.90;1.30;;;25.10;47.00;;;;;;6090353;28;80621;-63
2022/07/10 13:56:56;;;;;;;3.63;1.52;;;25.10;47.40;;;;;;6092685;28;81931;-66
2022/07/10 13:59:57;;;;;;;3.42;1.45;;;25.10;47.10;;;;;;6088927;28;83414;-66
2022/07/10 14:03:00;;;;;;;6.22;1.55;;;25.10;47.20;;;;;;6094528;28;80872;-62
2022/07/10 14:06:00;;;;;;;4.13;1.52;;;25.10;47.40;;;;;;6104754;28;80499;-63
2022/07/10 14:09:01;;;;;;;1.50;1.17;;;25.10;47.20;;;;;;6111096;28;80883;-65
2022/07/10 14:12:01;;;;;;;2.20;1.42;;;25.10;44.40;;;;;;6113823;28;81186;-66
2022/07/10 14:15:02;;;;;;;2.53;1.52;;;24.90;42.80;;;;;;6098881;28;80379;-71
2022/07/10 14:18:02;;;;;;;2.30;1.15;;;24.80;43.00;;;;;;6104374;28;80676;-62
2022/07/10 14:21:03;;;;;;;3.72;1.85;;;24.80;43.20;;;;;;6098717;28;83802;-73
2022/07/10 14:24:04;;;;;;;6.68;2.25;;;24.70;43.40;;;;;;6101154;28;81796;-72
2022/07/10 14:27:04;;;;;;;5.47;1.77;;;24.70;43.90;;;;;;6110492;28;81607;-70
2022/07/10 14:30:05;;;;;;;24.20;2.13;;;24.60;43.90;;;;;;6120536;28;80357;-65
2022/07/10 14:33:06;;;;;;;6.95;1.83;;;24.50;42.70;;;;;;6110989;28;80246;-64
2022/07/10 14:36:06;;;;;;;7.18;1.95;;;24.40;42.30;;;;;;6112354;28;81812;-65
2022/07/10 14:39:07;;;;;;;3.30;1.58;;;24.40;42.30;;;;;;6109801;28;81162;-64
2022/07/10 14:42:09;;;;;;;4.07;1.60;;;24.20;41.70;;;;;;6110792;28;80583;-64
2022/07/10 14:45:09;;;;;;;2.78;1.60;;;24.10;41.80;;;;;;6109812;28;80332;-64
2022/07/10 14:48:10;;;;;;;5.05;1.60;;;24.10;42.00;;;;;;6109384;28;80020;-65
2022/07/10 14:51:10;;;;;;;7.13;1.52;;;24.00;42.60;;;;;;6111510;28;80684;-64
2022/07/10 14:54:11;;;;;;;4.82;1.60;;;24.00;42.80;;;;;;6110687;28;80024;-65
2022/07/10 14:57:13;;;;;;;3.80;1.83;;;24.00;42.30;;;;;;6111000;28;81433;-65
2022/07/10 15:00:13;;;;;;;3.33;1.55;;;23.90;42.30;;;;;;6100377;28;81568;-65
2022/07/10 15:03:14;;;;;;;2.25;1.30;;;24.00;42.70;;;;;;6104124;28;80910;-64
2022/07/10 15:06:14;;;;;;;3.17;1.30;;;24.00;42.00;;;;;;6109573;28;81567;-64
2022/07/10 15:09:15;;;;;;;3.60;1.13;;;24.00;41.90;;;;;;6110937;28;80030;-64
2022/07/10 15:12:15;;;;;;;4.38;1.60;;;24.00;42.00;;;;;;6100736;28;81299;-68
2022/07/10 15:15:16;;;;;;;1.80;1.10;;;24.00;42.70;;;;;;6098336;28;80572;-73
2022/07/10 15:18:16;;;;;;;5.63;2.10;;;24.00;42.90;;;;;;6093319;28;81077;-66
2022/07/10 15:21:17;;;;;;;2.25;1.40;;;24.00;43.00;;;;;;6091540;28;81963;-67
2022/07/10 15:24:18;;;;;;;3.80;1.77;;;23.90;41.80;;;;;;6098842;28;80582;-67
2022/07/10 15:27:18;;;;;;;4.75;1.65;;;23.90;42.50;;;;;;6108346;28;81435;-67
2022/07/10 15:30:18;;;;;;;2.50;1.38;;;23.90;43.20;;;;;;6097986;28;80555;-76
2022/07/10 15:33:19;;;;;;;3.80;1.45;;;23.90;43.20;;;;;;6110085;28;81515;-67
2022/07/10 15:36:21;;;;;;;3.40;1.30;;;23.80;43.20;;;;;;6112975;28;80754;-71
2022/07/10 15:39:21;;;;;;;1.45;1.05;;;23.80;43.70;;;;;;6110785;28;80776;-70
2022/07/10 15:42:22;;;;;;;5.35;1.40;;;23.90;44.20;;;;;;6108697;28;80481;-71
2022/07/10 15:45:22;;;;;;;2.90;1.48;;;23.90;44.50;;;;;;6093654;28;81503;-68
2022/07/10 15:48:23;;;;;;;2.90;1.10;;;23.90;44.60;;;;;;6091363;28;80481;-68